Time;durP1;ratioP1;P1;durP2;ratioP2;P2;SDS_P1;SDS_P2;PMS_P1;PMS_P2;Temp;Humidity;BMP_temperature;BMP_pressure;BME280_temperature;BME280_humidity;BME280_pressure;Samples;Min_cycle;Max_cycle;Signal;HPM_P1;HPM_P2
2022/09/28 00:01:17;;;;;;;1.77;1.47;;;9.00;99.90;;;-141.84;73.53;18661.66;5053373;28;20225;-63
2022/09/28 00:03:48;;;;;;;1.50;1.40;;;9.00;99.90;;;-141.84;73.52;18694.16;5053502;28;20607;-62
2022/09/28 00:06:22;;;;;;;3.07;1.50;;;9.00;99.90;;;-141.84;73.30;18712.47;5053562;28;20225;-63
2022/09/28 00:08:50;;;;;;;2.80;1.50;;;9.00;99.90;;;-141.84;73.56;18720.59;5053422;28;20676;-62
2022/09/28 00:11:22;;;;;;;1.80;1.50;;;9.00;99.90;;;-141.84;74.06;18708.41;5053617;28;20220;-62
2022/09/28 00:13:55;;;;;;;1.70;1.60;;;9.00;99.90;;;-141.84;73.79;18702.28;5053453;28;20229;-63
2022/09/28 00:16:26;;;;;;;2.17;1.67;;;9.10;99.90;;;-141.84;73.04;18720.59;5053111;28;20229;-64
2022/09/28 00:18:55;;;;;;;1.73;1.60;;;9.00;99.90;;;-141.84;73.73;18692.13;5053344;28;20240;-62
2022/09/28 00:21:28;;;;;;;1.57;1.47;;;8.90;99.90;;;-141.84;74.87;18659.63;5053358;28;20225;-63
2022/09/28 00:24:14;;;;;;;1.50;1.30;;;8.80;99.90;;;-141.84;75.10;18651.50;5053074;28;20833;-63
2022/09/28 00:26:47;;;;;;;2.07;1.57;;;8.70;99.90;;;-141.84;74.80;18659.63;5053651;28;20231;-62
2022/09/28 00:29:23;;;;;;;1.60;1.50;;;8.80;99.90;;;-141.84;75.23;18671.81;5053094;28;20220;-61
2022/09/28 00:31:58;;;;;;;1.50;1.40;;;8.70;99.90;;;-141.84;74.89;18631.19;5052948;28;20224;-62
2022/09/28 00:34:27;;;;;;;1.83;1.73;;;8.70;99.90;;;-141.84;75.71;18639.31;5052921;28;20224;-63
2022/09/28 00:36:56;;;;;;;2.10;1.40;;;8.70;99.90;;;-141.84;75.21;18679.94;5053037;28;20298;-63
2022/09/28 00:39:25;;;;;;;1.70;1.60;;;8.80;99.90;;;-141.84;73.57;18704.31;5053072;28;20228;-62
2022/09/28 00:41:54;;;;;;;2.83;1.50;;;8.80;99.90;;;-141.84;74.30;18677.91;5052949;28;20205;-62
2022/09/28 00:44:48;;;;;;;1.63;1.53;;;8.90;99.90;;;-141.84;74.80;18688.06;5053609;28;20212;-63
2022/09/28 00:47:27;;;;;;;1.73;1.40;;;9.00;99.90;;;-141.84;73.99;18665.72;5053160;28;20267;-63
2022/09/28 00:50:02;;;;;;;2.40;1.60;;;8.90;99.90;;;-141.84;74.54;18681.97;5052736;28;20255;-63
2022/09/28 00:52:39;;;;;;;1.70;1.60;;;9.00;99.90;;;-141.84;73.85;18681.97;5052544;28;20240;-63
2022/09/28 00:55:13;;;;;;;1.47;1.37;;;8.90;99.90;;;-141.84;73.45;18690.09;5052781;28;20229;-62
2022/09/28 00:57:48;;;;;;;3.13;1.80;;;8.90;99.90;;;-141.84;73.81;18647.44;5052657;28;20275;-62
2022/09/28 01:00:16;;;;;;;1.87;1.47;;;8.90;99.90;;;-141.84;74.12;18677.91;5052535;28;20228;-62
2022/09/28 01:02:46;;;;;;;1.63;1.37;;;8.80;99.90;;;-141.84;74.33;18643.38;5052333;28;20197;-64
2022/09/28 01:05:16;;;;;;;1.53;1.43;;;8.80;99.90;;;-141.84;75.11;18655.56;5053268;28;20208;-62
2022/09/28 01:07:47;;;;;;;2.77;1.60;;;8.80;99.90;;;-141.84;75.18;18616.97;5052262;28;20775;-64
2022/09/28 01:10:16;;;;;;;2.90;1.70;;;8.70;99.90;;;-141.84;75.23;18641.34;5052409;28;20225;-62
2022/09/28 01:12:44;;;;;;;1.60;1.50;;;8.70;99.90;;;-141.84;75.06;18635.25;5052406;28;20229;-62
2022/09/28 01:15:13;;;;;;;2.10;1.70;;;8.70;99.90;;;-141.84;75.35;18647.44;5052353;28;20240;-63
2022/09/28 01:18:11;;;;;;;3.13;1.60;;;8.70;99.90;;;-141.84;75.04;18647.44;5052184;28;20209;-63
2022/09/28 01:20:59;;;;;;;1.57;1.20;;;8.70;99.90;;;-141.84;74.44;18653.53;5052272;28;20198;-66
2022/09/28 01:23:53;;;;;;;1.50;1.40;;;8.70;99.90;;;-141.84;74.64;18661.66;5052823;28;20185;-63
2022/09/28 01:26:49;;;;;;;2.20;1.57;;;8.70;99.90;;;-141.84;75.72;18627.13;5052482;28;20212;-62
2022/09/28 01:29:35;;;;;;;2.87;1.60;;;8.60;99.90;;;-141.84;76.55;18588.53;5052799;28;20271;-62
2022/09/28 01:32:16;;;;;;;1.80;1.70;;;8.50;99.90;;;-141.84;76.78;18582.44;5051819;28;20295;-62
2022/09/28 01:34:54;;;;;;;1.40;1.30;;;8.50;99.90;;;-141.84;76.14;18614.94;5051965;28;20248;-63
2022/09/28 01:37:30;;;;;;;1.80;1.30;;;8.50;99.90;;;-141.84;76.37;18606.81;5051969;28;20225;-62
2022/09/28 01:40:02;;;;;;;1.13;1.10;;;8.50;99.90;;;-141.84;76.08;18596.66;5050835;28;20576;-62
2022/09/28 01:42:37;;;;;;;1.47;1.27;;;8.50;99.90;;;-141.84;75.96;18576.31;5051926;28;20229;-62
2022/09/28 01:45:14;;;;;;;2.33;1.43;;;8.50;99.90;;;-141.84;74.85;18635.25;5051999;28;20306;-63
2022/09/28 01:47:46;;;;;;;1.40;1.30;;;8.50;99.90;;;-141.84;74.99;18633.22;5051266;28;20684;-61
2022/09/28 01:50:22;;;;;;;1.77;1.30;;;8.60;99.90;;;-141.84;76.08;18578.38;5052378;28;20247;-62
2022/09/28 01:52:57;;;;;;;1.07;0.97;;;8.50;99.90;;;-141.84;75.98;18592.59;5051590;28;20775;-63
2022/09/28 01:55:31;;;;;;;1.70;1.40;;;8.40;99.90;;;-141.84;76.31;18596.66;5051735;28;20760;-63
2022/09/28 01:58:08;;;;;;;1.80;1.13;;;8.40;99.90;;;-141.84;76.37;18600.72;5051541;28;20232;-61
2022/09/28 02:00:43;;;;;;;1.47;1.20;;;8.40;99.90;;;-141.84;77.33;18568.19;5051801;28;20225;-62
2022/09/28 02:03:17;;;;;;;1.37;1.27;;;8.40;99.90;;;-141.84;78.31;18539.75;5051162;28;20651;-63
2022/09/28 02:05:54;;;;;;;1.47;1.37;;;8.20;99.90;;;-141.84;78.36;18549.91;5051802;28;20186;-62
2022/09/28 02:08:31;;;;;;;2.93;1.40;;;8.30;99.90;;;-141.84;78.85;18537.72;5052264;28;20585;-62
2022/09/28 02:11:09;;;;;;;1.40;1.30;;;8.20;99.90;;;-141.84;79.12;18560.06;5051323;28;20321;-62
2022/09/28 02:13:44;;;;;;;2.23;1.30;;;8.10;99.90;;;-141.84;79.24;18521.47;5051321;28;20236;-61
2022/09/28 02:16:20;;;;;;;1.30;1.20;;;8.10;99.90;;;-141.84;79.49;18537.72;5051342;28;20228;-62
2022/09/28 02:18:48;;;;;;;1.47;1.37;;;8.00;99.90;;;-141.84;79.30;18527.56;5051329;28;20271;-61
2022/09/28 02:21:23;;;;;;;1.93;1.53;;;8.00;99.90;;;-141.84;79.43;18513.34;5051446;28;20221;-63
2022/09/28 02:23:59;;;;;;;2.13;1.20;;;8.10;99.90;;;-141.84;79.07;18511.31;5051456;28;20177;-62
2022/09/28 02:26:34;;;;;;;2.00;1.40;;;8.00;99.90;;;-141.84;79.51;18517.41;5051682;28;20437;-60
2022/09/28 02:29:04;;;;;;;2.40;1.37;;;8.00;99.90;;;-141.84;79.54;18495.06;5051074;28;20251;-63
2022/09/28 02:31:32;;;;;;;1.20;1.10;;;8.00;99.90;;;-141.84;78.89;18503.19;5051078;28;20229;-62
2022/09/28 02:34:00;;;;;;;1.80;1.30;;;8.10;99.90;;;-141.84;78.79;18488.97;5051056;28;20252;-63
2022/09/28 02:36:29;;;;;;;1.83;1.63;;;8.10;99.90;;;-141.84;78.71;18488.97;5051247;28;20225;-61
2022/09/28 02:39:00;;;;;;;1.17;1.07;;;8.00;99.90;;;-141.84;78.68;18486.94;5051118;28;20216;-61
2022/09/28 02:41:46;;;;;;;1.93;1.40;;;8.00;99.90;;;-141.84;79.05;18482.88;5051510;28;20197;-62
2022/09/28 02:44:34;;;;;;;1.40;1.30;;;8.00;99.90;;;-141.84;78.79;18462.56;5051298;28;20202;-63
2022/09/28 02:47:15;;;;;;;2.00;1.43;;;7.90;99.90;;;-141.84;79.23;18505.22;5050788;28;20323;-62
2022/09/28 02:49:56;;;;;;;1.70;1.33;;;7.90;99.90;;;-141.84;78.99;18497.09;5050618;28;20228;-62
2022/09/28 02:52:57;;;;;;;1.60;1.30;;;7.90;99.90;;;-141.84;78.64;18501.16;5053844;28;20229;-61
2022/09/28 02:55:43;;;;;;;1.93;1.50;;;8.00;99.90;;;-141.84;78.87;18464.59;5055048;28;20506;-62
2022/09/28 02:58:25;;;;;;;2.20;1.37;;;7.90;99.90;;;-141.84;77.90;18491.00;5054999;28;20240;-62
2022/09/28 03:01:05;;;;;;;1.60;1.50;;;8.00;99.90;;;-141.84;78.19;18491.00;5054687;28;20237;-62
2022/09/28 03:03:48;;;;;;;3.77;1.50;;;8.00;99.90;;;-141.84;78.43;18482.88;5054568;28;20283;-62
2022/09/28 03:06:26;;;;;;;3.40;1.60;;;7.90;99.90;;;-141.84;78.57;18503.19;5055011;28;20254;-63
2022/09/28 03:09:05;;;;;;;1.30;1.20;;;7.90;99.90;;;-141.84;78.62;18482.88;5054855;28;20205;-63
2022/09/28 03:11:40;;;;;;;3.30;1.50;;;7.90;99.90;;;-141.84;78.16;18491.00;5055497;28;20185;-62
2022/09/28 03:14:09;;;;;;;1.60;1.30;;;7.90;99.90;;;-141.84;78.22;18499.13;5054899;28;20266;-63
2022/09/28 03:16:43;;;;;;;1.67;1.23;;;7.90;99.90;;;-141.84;78.18;18464.59;5054330;28;20236;-63
2022/09/28 03:19:12;;;;;;;1.70;1.20;;;8.00;99.90;;;-141.84;78.57;18511.31;5054400;28;20226;-62
2022/09/28 03:21:41;;;;;;;1.97;1.40;;;7.90;99.90;;;-141.84;77.28;18488.97;5054388;28;20221;-63
2022/09/28 03:24:09;;;;;;;2.50;1.23;;;8.10;99.90;;;-141.84;76.98;18493.03;5054715;28;20233;-62
2022/09/28 03:26:39;;;;;;;1.53;1.10;;;8.10;99.90;;;-141.84;76.35;18517.41;5055135;28;20213;-63
2022/09/28 03:29:07;;;;;;;1.23;1.10;;;8.20;99.90;;;-141.84;74.48;18549.91;5054519;28;20225;-63
2022/09/28 03:31:35;;;;;;;1.90;1.30;;;8.20;99.90;;;-141.84;72.99;18608.84;5054073;28;20231;-61
2022/09/28 03:34:05;;;;;;;1.87;0.90;;;8.40;99.90;;;-141.84;74.11;18578.38;5053797;28;20646;-62
2022/09/28 03:36:33;;;;;;;1.20;0.87;;;8.50;99.90;;;-141.84;74.79;18594.63;5054148;28;20232;-63
2022/09/28 03:39:01;;;;;;;1.53;1.30;;;8.60;99.90;;;-141.84;75.29;18562.09;5054200;28;20221;-62
2022/09/28 03:41:29;;;;;;;2.17;1.23;;;8.50;99.90;;;-141.84;74.75;18590.56;5054834;28;20201;-61
2022/09/28 03:43:57;;;;;;;1.63;1.30;;;8.60;99.90;;;-141.84;73.94;18586.50;5053961;28;20229;-62
2022/09/28 03:46:25;;;;;;;1.20;1.10;;;8.70;99.90;;;-141.84;73.40;18586.50;5053881;28;20241;-62
2022/09/28 03:48:57;;;;;;;3.40;1.30;;;8.60;99.90;;;-141.84;73.45;18616.97;5053859;28;20240;-61
2022/09/28 03:51:26;;;;;;;1.37;1.07;;;8.70;99.90;;;-141.84;72.89;18598.69;5054033;28;20232;-62
2022/09/28 03:53:54;;;;;;;3.00;1.00;;;8.70;99.90;;;-141.84;72.72;18614.94;5053821;28;20212;-62
2022/09/28 03:56:22;;;;;;;1.23;1.13;;;8.80;99.90;;;-141.84;72.14;18647.44;5054438;28;20209;-63
2022/09/28 03:58:50;;;;;;;1.73;1.37;;;8.90;99.90;;;-141.84;71.62;18665.72;5053663;28;20233;-62
2022/09/28 04:01:18;;;;;;;1.30;1.00;;;8.90;99.90;;;-141.84;71.40;18681.97;5053430;28;20229;-62
2022/09/28 04:03:47;;;;;;;3.53;1.43;;;8.90;99.90;;;-141.84;72.74;18671.81;5052539;28;20229;-62
2022/09/28 04:06:15;;;;;;;2.83;1.20;;;8.90;99.90;;;-141.84;72.47;18655.56;5053586;28;20279;-62
2022/09/28 04:08:45;;;;;;;2.93;1.40;;;9.00;99.90;;;-141.84;71.94;18665.72;5053830;28;20201;-62
2022/09/28 04:11:13;;;;;;;1.37;1.27;;;9.00;99.90;;;-141.84;72.11;18675.88;5053633;28;20224;-62
2022/09/28 04:13:41;;;;;;;1.43;1.33;;;9.00;99.90;;;-141.84;72.16;18663.69;5053422;28;20241;-61
2022/09/28 04:16:10;;;;;;;1.47;1.37;;;8.90;99.90;;;-141.84;72.68;18643.38;5053214;28;20225;-61
2022/09/28 04:18:39;;;;;;;1.53;1.43;;;8.90;99.90;;;-141.84;72.89;18653.53;5053366;28;20225;-62
2022/09/28 04:21:14;;;;;;;1.70;1.47;;;8.90;99.90;;;-141.84;73.36;18661.66;5053405;28;20225;-62
2022/09/28 04:23:43;;;;;;;2.37;1.80;;;8.90;99.90;;;-141.84;72.54;18643.38;5053675;28;20243;-64
2022/09/28 04:26:16;;;;;;;3.23;1.73;;;8.90;99.90;;;-141.84;72.67;18669.78;5053705;28;20609;-61
2022/09/28 04:31:43;;;;;;;2.10;1.57;;;8.90;99.90;;;-141.84;72.50;18639.31;5037169;28;20226;-62
2022/09/28 04:34:13;;;;;;;3.40;1.93;;;8.70;99.90;;;-141.84;72.20;18688.06;5053085;28;20254;-62
2022/09/28 04:36:41;;;;;;;1.80;1.70;;;8.80;99.90;;;-141.84;72.31;18688.06;5053074;28;20312;-61
2022/09/28 04:39:11;;;;;;;3.07;1.80;;;8.90;99.90;;;-141.84;73.31;18694.16;5053128;28;20232;-62
2022/09/28 04:41:40;;;;;;;1.83;1.73;;;8.90;99.90;;;-141.84;73.38;18625.09;5053607;28;20205;-61
2022/09/28 04:44:09;;;;;;;2.90;1.90;;;8.90;99.90;;;-141.84;73.27;18627.13;5053305;28;20216;-62
2022/09/28 04:46:37;;;;;;;3.33;2.00;;;8.80;99.90;;;-141.84;73.36;18677.91;5052464;28;20233;-61
2022/09/28 04:49:05;;;;;;;2.40;2.10;;;8.90;99.90;;;-141.84;73.50;18639.31;5053066;28;20308;-62
2022/09/28 04:51:33;;;;;;;2.67;1.80;;;8.90;99.90;;;-141.84;73.20;18665.72;5052632;28;20245;-62
2022/09/28 04:54:01;;;;;;;2.33;1.97;;;8.90;99.90;;;-141.84;73.72;18633.22;5053011;28;20223;-61
2022/09/28 04:56:29;;;;;;;3.10;2.10;;;8.90;99.90;;;-141.84;73.64;18673.84;5053189;28;20208;-62
2022/09/28 04:58:59;;;;;;;2.67;2.17;;;8.90;99.90;;;-141.84;73.87;18631.19;5052587;28;20233;-61
2022/09/28 05:01:28;;;;;;;3.40;2.17;;;8.90;99.90;;;-141.84;72.97;18673.84;5052180;28;20225;-61
2022/09/28 05:03:56;;;;;;;2.93;2.20;;;8.90;99.90;;;-141.84;73.08;18679.94;5052498;28;20240;-62
2022/09/28 05:06:26;;;;;;;3.43;2.40;;;9.00;99.90;;;-141.84;72.67;18684.00;5052319;28;20287;-63
2022/09/28 05:08:56;;;;;;;3.03;2.27;;;9.00;99.90;;;-141.84;72.69;18665.72;5052354;28;20295;-61
2022/09/28 05:11:24;;;;;;;2.87;2.30;;;9.10;99.90;;;-141.84;72.73;18657.59;5052493;28;20225;-61
2022/09/28 05:13:52;;;;;;;3.47;1.93;;;9.10;99.90;;;-141.84;72.59;18690.09;5052519;28;20275;-62
2022/09/28 05:16:21;;;;;;;2.30;2.10;;;9.20;99.90;;;-141.84;72.27;18663.69;5052039;28;20225;-62
2022/09/28 05:18:49;;;;;;;2.53;2.33;;;9.20;99.90;;;-141.84;72.11;18702.28;5052197;28;20232;-62
2022/09/28 05:21:18;;;;;;;3.73;2.40;;;9.20;99.90;;;-141.84;71.97;18684.00;5051866;28;20780;-61
2022/09/28 05:23:47;;;;;;;3.33;2.40;;;9.20;99.90;;;-141.84;71.62;18716.53;5052225;28;20201;-61
2022/09/28 05:26:15;;;;;;;3.03;2.13;;;9.20;99.90;;;-141.84;71.57;18696.19;5052364;28;20691;-62
2022/09/28 05:28:43;;;;;;;2.70;2.17;;;9.30;99.90;;;-141.84;71.52;18692.13;5052107;28;20588;-61
2022/09/28 05:31:11;;;;;;;2.63;2.07;;;9.30;99.90;;;-141.84;71.23;18749.03;5051597;28;20728;-63
2022/09/28 05:33:41;;;;;;;3.40;2.30;;;9.30;99.90;;;-141.84;71.78;18722.63;5051901;28;20225;-62
2022/09/28 05:36:10;;;;;;;4.10;2.50;;;9.30;99.90;;;-141.84;71.59;18696.19;5051881;28;20241;-61
2022/09/28 05:38:38;;;;;;;2.97;2.30;;;9.30;99.90;;;-141.84;72.19;18677.91;5052667;28;20209;-63
2022/09/28 05:41:06;;;;;;;2.87;2.10;;;9.30;99.90;;;-141.84;72.08;18702.28;5051950;28;20236;-63
2022/09/28 05:43:35;;;;;;;2.50;2.30;;;9.30;99.90;;;-141.84;71.60;18690.09;5051890;28;20252;-63
2022/09/28 05:46:03;;;;;;;4.27;2.40;;;9.30;99.90;;;-141.84;71.75;18696.19;5051530;28;20248;-62
2022/09/28 05:48:31;;;;;;;4.10;2.40;;;9.30;99.90;;;-141.84;71.90;18736.84;5051550;28;20716;-64
2022/09/28 05:51:01;;;;;;;5.53;2.97;;;9.40;99.90;;;-141.84;71.69;18704.31;5051805;28;20249;-62
2022/09/28 05:53:29;;;;;;;5.10;2.80;;;9.40;99.90;;;-141.84;71.89;18718.56;5051969;28;20205;-62
2022/09/28 05:55:58;;;;;;;6.27;3.10;;;9.40;99.90;;;-141.84;72.28;18730.75;5051973;28;20278;-62
2022/09/28 05:58:28;;;;;;;4.57;2.60;;;9.50;99.90;;;-141.84;72.33;18700.25;5051542;28;20225;-62
2022/09/28 06:00:57;;;;;;;3.00;2.40;;;9.40;99.90;;;-141.84;71.51;18755.13;5051409;28;20221;-62
2022/09/28 06:03:25;;;;;;;5.57;3.00;;;9.50;99.90;;;-141.84;71.70;18720.59;5051261;28;20755;-63
2022/09/28 06:05:54;;;;;;;3.90;2.90;;;9.50;99.90;;;-141.84;72.00;18736.84;5051400;28;20681;-62
2022/09/28 06:08:23;;;;;;;4.60;3.37;;;9.50;99.90;;;-141.84;72.62;18704.31;5051641;28;20751;-62
2022/09/28 06:10:51;;;;;;;5.40;3.10;;;9.50;99.90;;;-141.84;73.27;18690.09;5051058;28;20226;-61
2022/09/28 06:13:19;;;;;;;3.17;2.60;;;9.50;99.90;;;-141.84;73.71;18692.13;5051232;28;20229;-62
2022/09/28 06:15:47;;;;;;;3.43;3.13;;;9.40;99.90;;;-141.84;74.04;18692.13;5051046;28;20745;-63
2022/09/28 06:18:15;;;;;;;5.17;3.30;;;9.40;99.90;;;-141.84;73.24;18710.44;5051241;28;20654;-63
2022/09/28 06:20:43;;;;;;;3.17;2.73;;;9.40;99.90;;;-141.84;74.45;18690.09;5051480;28;20213;-62
2022/09/28 06:23:13;;;;;;;3.50;2.60;;;9.40;99.90;;;-141.84;75.61;18631.19;5051741;28;20197;-63
2022/09/28 06:25:42;;;;;;;4.37;2.80;;;9.30;99.90;;;-141.84;76.53;18631.19;5050793;28;20705;-63
2022/09/28 06:28:13;;;;;;;4.63;3.03;;;9.20;99.90;;;-141.84;76.99;18653.53;5050952;28;20237;-65
2022/09/28 06:30:43;;;;;;;4.50;3.60;;;9.10;99.90;;;-141.84;77.42;18610.88;5051164;28;20243;-63
2022/09/28 06:33:15;;;;;;;3.87;3.37;;;9.10;99.90;;;-141.84;77.95;18602.75;5051137;28;20221;-63
2022/09/28 06:35:43;;;;;;;4.57;3.13;;;9.00;99.90;;;-141.84;78.45;18586.50;5051522;28;20562;-62
2022/09/28 06:38:11;;;;;;;4.47;3.30;;;9.00;99.90;;;-141.84;79.16;18619.00;5051251;28;20212;-62
2022/09/28 06:40:39;;;;;;;5.53;4.47;;;8.90;99.90;;;-141.84;79.77;18582.44;5050989;28;20228;-63
2022/09/28 06:43:13;;;;;;;5.33;3.60;;;8.90;99.90;;;-141.84;79.60;18549.91;5051265;28;20350;-62
2022/09/28 06:45:43;;;;;;;5.00;3.73;;;8.90;99.90;;;-141.84;80.04;18553.97;5051141;28;20257;-62
2022/09/28 06:48:12;;;;;;;7.00;4.80;;;8.90;99.90;;;-141.84;80.37;18549.91;5050922;28;20230;-63
2022/09/28 06:50:41;;;;;;;6.23;4.30;;;8.80;99.90;;;-141.84;79.12;18566.16;5051107;28;20208;-62
2022/09/28 06:53:13;;;;;;;4.73;4.17;;;8.90;99.90;;;-141.84;79.35;18521.47;5051819;28;20201;-61
2022/09/28 06:55:44;;;;;;;5.37;4.07;;;8.90;99.90;;;-141.84;80.56;18543.81;5050984;28;20236;-62
2022/09/28 06:58:18;;;;;;;5.50;4.40;;;8.90;99.90;;;-141.84;81.06;18582.44;5049962;28;20233;-63
2022/09/28 07:00:49;;;;;;;6.43;3.83;;;8.90;99.90;;;-141.84;80.58;18556.00;5030714;28;20241;-61
2022/09/28 07:03:20;;;;;;;4.67;4.10;;;8.90;99.90;;;-141.84;81.04;18572.25;5030430;28;20445;-62
2022/09/28 07:05:52;;;;;;;4.90;4.40;;;8.90;99.90;;;-141.84;81.27;18545.84;5030744;28;20194;-63
2022/09/28 07:08:23;;;;;;;5.57;4.47;;;9.00;99.90;;;-141.84;81.68;18553.97;5031280;28;20187;-63
2022/09/28 07:10:55;;;;;;;5.87;4.37;;;9.00;99.90;;;-141.84;81.75;18558.03;5030512;28;20232;-61
2022/09/28 07:13:27;;;;;;;5.20;4.37;;;9.00;99.90;;;-141.84;81.80;18572.25;5030579;28;20226;-63
2022/09/28 07:16:15;;;;;;;6.00;4.53;;;9.00;99.90;;;-141.84;81.96;18491.00;5030355;28;20292;-61
2022/09/28 07:18:43;;;;;;;6.37;4.37;;;9.00;99.90;;;-141.84;81.60;18523.50;5039053;28;20245;-63
2022/09/28 07:21:12;;;;;;;4.90;3.80;;;9.00;99.90;;;-141.84;82.36;18535.69;5050676;28;20233;-62
2022/09/28 07:23:53;;;;;;;4.53;4.13;;;9.00;99.90;;;-141.84;82.86;18529.59;5050499;28;20185;-61
2022/09/28 07:26:21;;;;;;;5.77;4.50;;;9.00;99.90;;;-141.84;82.80;18509.28;5050922;28;20199;-60
2022/09/28 07:28:54;;;;;;;5.13;4.60;;;9.00;99.90;;;-141.84;82.60;18527.56;5050098;28;20229;-62
2022/09/28 07:31:25;;;;;;;6.30;4.80;;;9.00;99.90;;;-141.84;82.63;18505.22;5050159;28;20234;-61
2022/09/28 07:33:53;;;;;;;5.33;4.17;;;9.00;99.90;;;-141.84;82.73;18505.22;5050126;28;20770;-61
2022/09/28 07:36:21;;;;;;;6.87;5.20;;;9.00;99.90;;;-141.84;82.97;18464.59;5050433;28;20237;-61
2022/09/28 07:38:50;;;;;;;5.07;4.53;;;9.00;99.90;;;-141.84;83.81;18509.28;5053194;28;20629;-61
2022/09/28 07:41:21;;;;;;;4.83;4.33;;;9.00;99.90;;;-141.84;83.82;18484.91;5054613;28;20263;-61
2022/09/28 07:43:49;;;;;;;4.87;4.40;;;9.00;99.90;;;-141.84;83.83;18488.97;5053810;28;20221;-61
2022/09/28 07:46:20;;;;;;;5.30;4.40;;;9.00;99.90;;;-141.84;84.00;18466.63;5053823;28;20236;-61
2022/09/28 07:48:50;;;;;;;6.53;4.70;;;9.00;99.90;;;-141.84;83.94;18472.72;5053503;28;20235;-60
2022/09/28 07:51:20;;;;;;;4.50;4.00;;;9.10;99.90;;;-141.84;83.68;18448.34;5053528;28;20316;-62
2022/09/28 07:53:48;;;;;;;7.27;4.00;;;9.10;99.90;;;-141.84;83.06;18444.28;5053607;28;20581;-62
2022/09/28 07:56:19;;;;;;;5.13;4.23;;;9.10;99.90;;;-141.84;83.15;18480.84;5053921;28;20718;-62
2022/09/28 07:58:48;;;;;;;4.30;3.90;;;9.10;99.90;;;-141.84;82.34;18464.59;5053493;28;20228;-65
2022/09/28 08:01:17;;;;;;;4.97;4.10;;;9.20;99.90;;;-141.84;82.63;18452.41;5053327;28;20229;-65
2022/09/28 08:03:47;;;;;;;6.73;4.37;;;9.20;99.90;;;-141.84;83.25;18468.66;5053685;28;20268;-61
2022/09/28 08:06:17;;;;;;;5.37;4.77;;;9.20;99.90;;;-141.84;83.69;18478.81;5053399;28;20225;-63
2022/09/28 08:08:45;;;;;;;3.83;3.50;;;9.30;99.90;;;-141.84;81.86;18452.41;5053675;28;20214;-62
2022/09/28 08:11:16;;;;;;;4.47;3.57;;;9.30;99.90;;;-141.84;81.31;18478.81;5053654;28;20218;-63
2022/09/28 08:13:46;;;;;;;4.23;3.70;;;9.30;99.90;;;-141.84;81.50;18497.09;5053166;28;20236;-62
2022/09/28 08:16:14;;;;;;;4.40;3.80;;;9.30;99.90;;;-141.84;81.73;18503.19;5053075;28;20733;-62
2022/09/28 08:18:42;;;;;;;4.77;3.37;;;9.30;99.90;;;-141.84;82.48;18444.28;5052976;28;20229;-61
2022/09/28 08:23:57;;;;;;;5.47;3.70;;;9.30;99.90;;;-141.84;82.57;18456.47;5052977;28;20213;-61
2022/09/28 08:26:25;;;;;;;4.37;3.97;;;9.40;99.90;;;-141.84;82.12;18482.88;5053827;28;20206;-61
2022/09/28 08:28:53;;;;;;;4.80;3.70;;;9.40;99.90;;;-141.84;81.98;18507.25;5052820;28;20709;-62
2022/09/28 08:31:21;;;;;;;3.40;3.10;;;9.40;99.90;;;-141.84;81.99;18460.53;5053014;28;20232;-62
2022/09/28 08:33:52;;;;;;;4.23;2.60;;;9.40;99.90;;;-141.84;80.39;18472.72;5052777;28;20424;-60
2022/09/28 08:36:22;;;;;;;3.53;2.37;;;9.40;99.90;;;-141.84;80.19;18488.97;5052988;28;20248;-62
2022/09/28 08:38:50;;;;;;;2.90;2.60;;;9.30;99.90;;;-141.84;80.16;18501.16;5053034;28;20221;-61
2022/09/28 08:41:35;;;;;;;3.97;1.90;;;9.30;99.90;;;-141.84;79.79;18488.97;5053488;28;20201;-61
2022/09/28 08:44:22;;;;;;;2.13;1.50;;;9.30;99.90;;;-141.84;79.82;18464.59;5052603;28;20383;-63
2022/09/28 08:46:56;;;;;;;1.20;1.10;;;9.20;99.90;;;-141.84;78.34;18488.97;5052574;28;20726;-63
2022/09/28 08:49:31;;;;;;;1.70;1.00;;;9.10;99.90;;;-141.84;79.12;18460.53;5051950;28;20665;-64
2022/09/28 08:52:07;;;;;;;1.70;1.40;;;9.10;99.90;;;-141.84;80.12;18460.53;5052503;28;20225;-64
2022/09/28 08:54:44;;;;;;;1.30;1.20;;;9.10;99.90;;;-141.84;79.93;18456.47;5052563;28;20237;-63
2022/09/28 08:57:18;;;;;;;2.23;1.40;;;9.10;99.90;;;-141.84;80.43;18460.53;5052689;28;20221;-61
2022/09/28 08:59:52;;;;;;;0.90;0.90;;;9.10;99.90;;;-141.84;80.34;18452.41;5052548;28;20192;-62
2022/09/28 09:02:27;;;;;;;1.10;1.00;;;9.20;99.90;;;-141.84;80.46;18478.81;5052941;28;20178;-64
2022/09/28 09:04:57;;;;;;;1.23;1.03;;;9.30;99.90;;;-141.84;80.16;18493.03;5052271;28;20629;-62
2022/09/28 09:07:59;;;;;;;1.60;1.20;;;9.30;99.90;;;-141.84;80.33;18458.50;5052307;28;20721;-63
2022/09/28 09:10:50;;;;;;;1.63;1.03;;;9.40;99.90;;;-141.84;80.51;18466.63;5052095;28;20239;-62
2022/09/28 09:14:05;;;;;;;0.90;0.80;;;9.40;99.90;;;-141.84;80.59;18468.66;5052263;28;20264;-64
2022/09/28 09:16:54;;;;;;;1.10;1.00;;;9.50;99.90;;;-141.84;79.29;18517.41;5051912;28;20240;-61
2022/09/28 09:19:43;;;;;;;1.10;0.90;;;9.60;99.90;;;-141.84;77.68;18535.69;5052083;28;20675;-63
2022/09/28 09:22:21;;;;;;;0.67;0.67;;;9.70;99.90;;;-141.84;77.32;18568.19;5052072;28;20221;-61
2022/09/28 09:25:00;;;;;;;1.30;0.80;;;9.80;99.90;;;-141.84;76.99;18547.88;5052084;28;20600;-60
2022/09/28 09:27:48;;;;;;;1.73;1.10;;;9.80;99.90;;;-141.84;76.69;18545.84;5051932;28;20231;-62
2022/09/28 09:30:20;;;;;;;1.70;1.23;;;9.90;99.90;;;-141.84;75.79;18553.97;5051938;28;20312;-59
2022/09/28 09:33:13;;;;;;;1.07;0.80;;;10.10;99.90;;;-141.84;74.81;18627.13;5051789;28;20221;-60
2022/09/28 09:36:05;;;;;;;0.77;0.73;;;10.10;99.90;;;-141.84;74.39;18651.50;5051806;28;20221;-60
2022/09/28 09:38:52;;;;;;;0.60;0.60;;;10.30;99.90;;;-141.84;73.80;18700.25;5051919;28;20190;-60
2022/09/28 09:41:40;;;;;;;0.93;0.70;;;10.50;99.90;;;-141.84;72.99;18710.44;5051902;28;20213;-61
2022/09/28 09:44:51;;;;;;;1.60;0.70;;;10.70;99.90;;;-141.84;71.67;18777.47;5052057;28;20213;-60
2022/09/28 09:47:24;;;;;;;0.97;0.80;;;10.90;99.90;;;-141.84;71.90;18771.38;5047612;28;20225;-60
2022/09/28 09:50:00;;;;;;;1.00;0.70;;;11.00;99.90;;;-141.84;71.71;18785.59;5051427;28;20225;-61
2022/09/28 09:52:50;;;;;;;2.40;0.60;;;11.30;99.90;;;-141.84;72.03;18820.16;5051399;28;20602;-61
2022/09/28 09:55:25;;;;;;;1.03;0.70;;;11.40;99.90;;;-141.84;71.67;18797.78;5051206;28;20728;-62
2022/09/28 09:58:09;;;;;;;0.60;0.60;;;11.50;99.90;;;-141.84;68.83;18881.09;5063249;28;20227;-60
2022/09/28 10:00:42;;;;;;;0.53;0.53;;;11.40;99.90;;;-141.84;69.67;18879.06;5070526;28;20227;-60
2022/09/28 10:03:23;;;;;;;0.83;0.83;;;11.50;99.90;;;-141.84;70.44;18891.25;5071165;28;20302;-61
2022/09/28 10:06:00;;;;;;;0.70;0.70;;;11.50;99.90;;;-141.84;70.08;18864.84;5070943;28;20189;-60
2022/09/28 10:08:33;;;;;;;1.07;0.70;;;11.50;99.90;;;-141.84;67.80;18986.75;5070671;28;20688;-62
2022/09/28 10:11:11;;;;;;;1.90;1.37;;;11.50;99.90;;;-141.84;67.72;19049.75;5070678;28;20220;-62
2022/09/28 10:13:41;;;;;;;0.50;0.50;;;11.60;99.90;;;-141.84;65.07;19196.06;5070665;28;20229;-61
2022/09/28 10:16:09;;;;;;;0.83;0.50;;;11.80;99.90;;;-141.84;65.23;19220.44;5069590;28;20638;-61
2022/09/28 10:18:38;;;;;;;0.63;0.60;;;11.90;99.90;;;-141.84;65.31;19267.16;5050881;28;20228;-62
2022/09/28 10:21:06;;;;;;;0.53;0.50;;;12.10;99.90;;;-141.84;65.28;19244.81;5051444;28;20225;-60
2022/09/28 10:23:38;;;;;;;0.83;0.70;;;12.20;99.90;;;-141.84;64.19;19344.41;5051155;28;20247;-63
2022/09/28 10:26:14;;;;;;;0.80;0.70;;;12.30;99.90;;;-141.84;64.27;19307.81;5039404;28;20253;-61
2022/09/28 10:28:51;;;;;;;0.63;0.57;;;12.20;99.90;;;-141.84;65.23;19257.00;5029736;28;20776;-61
2022/09/28 10:31:41;;;;;;;0.80;0.70;;;12.10;99.90;;;-141.84;66.48;19171.66;5025863;28;20233;-60
2022/09/28 10:34:14;;;;;;;0.77;0.77;;;11.90;99.90;;;-141.84;66.49;19147.28;5029461;28;20241;-60
2022/09/28 10:36:54;;;;;;;1.03;0.97;;;11.60;99.90;;;-141.84;68.32;19029.44;5030642;28;20222;-61
2022/09/28 10:39:32;;;;;;;1.30;0.90;;;11.40;99.90;;;-141.84;69.24;18942.06;5021082;28;20233;-61
2022/09/28 10:42:05;;;;;;;1.27;1.00;;;11.00;99.90;;;-141.84;70.26;18891.25;5032212;28;20224;-60
2022/09/28 10:44:50;;;;;;;1.50;1.10;;;10.80;99.90;;;-141.84;71.57;18858.75;5050931;28;20181;-60